Wetterdaten: Woche 31.05.10 - 06.06.10 (KW22)
Datum Zeit Temperatur Luftfeuchte Luftdruck Niederschlag Wind Richtung Sonnenschein Solar Taupunkt Windchill Windben
31.05.2010 00:00 12.0 C 94 % 1010.8 hPa 0.8 l/m 14.2 km/h (3 Bft) W 0.00 h 0 W/m 11.1 C 12.0 C 22.1 km/h (4 Bft)
31.05.2010 01:00 11.7 C 94 % 1010.3 hPa 0.2 l/m 16.5 km/h (3 Bft) W 0.00 h 0 W/m 10.7 C 11.7 C 26.5 km/h (4 Bft)
31.05.2010 02:00 11.5 C 93 % 1010.7 hPa 0.0 l/m 12.7 km/h (3 Bft) W 0.00 h 0 W/m 10.4 C 11.5 C 19.7 km/h (3 Bft)
31.05.2010 03:00 10.5 C 90 % 1011.6 hPa 0.0 l/m 7.5 km/h (2 Bft) W-NW 0.00 h 0 W/m 9.0 C 10.3 C 12.7 km/h (3 Bft)
31.05.2010 04:00 8.8 C 90 % 1012.2 hPa 0.0 l/m 1.9 km/h (1 Bft) O-SO 0.00 h 0 W/m 7.3 C 8.8 C 3.6 km/h (1 Bft)
31.05.2010 05:00 8.6 C 90 % 1012.6 hPa 0.0 l/m 5.2 km/h (1 Bft) O-SO 0.00 h 6 W/m 7.1 C 8.1 C 6.9 km/h (2 Bft)
31.05.2010 06:00 8.9 C 88 % 1012.9 hPa 0.0 l/m 3.2 km/h (1 Bft) O-SO 0.00 h 25 W/m 7.1 C 8.8 C 5.2 km/h (1 Bft)
31.05.2010 07:00 10.2 C 86 % 1013.4 hPa 0.0 l/m 3.1 km/h (1 Bft) S-SO 0.62 h 215 W/m 8.0 C 10.1 C 5.3 km/h (1 Bft)
31.05.2010 08:00 11.9 C 80 % 1013.6 hPa 0.0 l/m 7.6 km/h (2 Bft) W 0.63 h 338 W/m 8.6 C 11.9 C 12.6 km/h (3 Bft)
31.05.2010 09:00 12.8 C 73 % 1013.8 hPa 0.0 l/m 12.3 km/h (3 Bft) W 1.00 h 554 W/m 8.1 C 12.8 C 19.1 km/h (3 Bft)
31.05.2010 10:00 13.5 C 67 % 1013.8 hPa 0.0 l/m 11.5 km/h (2 Bft) W 0.55 h 498 W/m 7.5 C 13.5 C 18.3 km/h (3 Bft)
31.05.2010 11:00 13.4 C 69 % 1014.1 hPa 0.0 l/m 9.3 km/h (2 Bft) W 0.00 h 304 W/m 7.7 C 13.4 C 15.6 km/h (3 Bft)
31.05.2010 12:00 14.4 C 62 % 1014.3 hPa 0.0 l/m 12.6 km/h (3 Bft) W-NW 0.28 h 517 W/m 7.1 C 14.4 C 19.8 km/h (4 Bft)
31.05.2010 13:00 15.1 C 57 % 1014.6 hPa 0.0 l/m 14.1 km/h (3 Bft) W 0.32 h 567 W/m 6.7 C 15.1 C 22.3 km/h (4 Bft)
31.05.2010 14:00 16.0 C 53 % 1014.5 hPa 0.0 l/m 13.8 km/h (3 Bft) W 0.37 h 554 W/m 6.6 C 16.0 C 21.6 km/h (4 Bft)
31.05.2010 15:00 16.0 C 54 % 1015.0 hPa 0.0 l/m 13.2 km/h (3 Bft) W 0.40 h 493 W/m 6.7 C 16.0 C 20.6 km/h (4 Bft)
31.05.2010 16:00 15.3 C 56 % 1015.2 hPa 0.0 l/m 13.8 km/h (3 Bft) W 0.03 h 231 W/m 6.4 C 15.3 C 21.6 km/h (4 Bft)
31.05.2010 17:00 15.6 C 56 % 1015.5 hPa 0.0 l/m 12.5 km/h (3 Bft) W 0.13 h 267 W/m 6.8 C 15.6 C 19.6 km/h (3 Bft)
31.05.2010 18:00 15.6 C 57 % 1015.5 hPa 0.0 l/m 10.0 km/h (2 Bft) W-NW 0.28 h 222 W/m 7.0 C 15.6 C 16.2 km/h (3 Bft)
31.05.2010 19:00 14.5 C 56 % 1015.7 hPa 0.0 l/m 11.7 km/h (2 Bft) W-NW 0.00 h 79 W/m 5.8 C 14.5 C 18.3 km/h (3 Bft)
31.05.2010 20:00 13.8 C 61 % 1016.0 hPa 0.0 l/m 9.1 km/h (2 Bft) W 0.00 h 16 W/m 6.4 C 13.8 C 13.9 km/h (3 Bft)
31.05.2010 21:00 13.4 C 64 % 1016.9 hPa 0.0 l/m 10.0 km/h (2 Bft) W-NW 0.00 h 0 W/m 6.7 C 13.4 C 15.5 km/h (3 Bft)
31.05.2010 22:00 12.9 C 69 % 1017.5 hPa 0.0 l/m 12.5 km/h (3 Bft) W 0.00 h 0 W/m 7.4 C 12.9 C 19.6 km/h (3 Bft)
31.05.2010 23:00 12.4 C 72 % 1017.3 hPa 0.0 l/m 9.8 km/h (2 Bft) W 0.00 h 0 W/m 7.5 C 12.4 C 15.3 km/h (3 Bft)
01.06.2010 00:00 11.8 C 76 % 1017.6 hPa 0.0 l/m 6.0 km/h (2 Bft) W-NW 0.00 h 0 W/m 7.8 C 11.8 C 9.7 km/h (2 Bft)
01.06.2010 01:00 11.6 C 79 % 1017.5 hPa 0.0 l/m 2.6 km/h (1 Bft) W 0.00 h 0 W/m 8.0 C 11.6 C 5.0 km/h (1 Bft)
01.06.2010 02:00 11.3 C 81 % 1017.0 hPa 0.0 l/m 2.9 km/h (1 Bft) W-NW 0.00 h 0 W/m 8.1 C 11.3 C 5.1 km/h (1 Bft)
01.06.2010 03:00 11.0 C 83 % 1016.4 hPa 0.0 l/m 4.0 km/h (1 Bft) W 0.00 h 0 W/m 8.2 C 11.0 C 6.8 km/h (2 Bft)
01.06.2010 04:00 10.8 C 84 % 1015.9 hPa 0.0 l/m 3.1 km/h (1 Bft) W 0.00 h 0 W/m 8.2 C 10.8 C 5.9 km/h (2 Bft)
01.06.2010 05:00 10.9 C 85 % 1015.9 hPa 0.0 l/m 2.2 km/h (1 Bft) W 0.00 h 7 W/m 8.4 C 10.9 C 4.2 km/h (1 Bft)
01.06.2010 06:00 10.9 C 85 % 1016.2 hPa 0.0 l/m 1.3 km/h (1 Bft) W 0.00 h 21 W/m 8.5 C 10.9 C 3.0 km/h (1 Bft)
01.06.2010 07:00 11.3 C 85 % 1016.6 hPa 0.0 l/m 1.2 km/h (1 Bft) W-NW 0.00 h 57 W/m 8.9 C 11.3 C 3.0 km/h (1 Bft)
01.06.2010 08:00 11.7 C 85 % 1017.1 hPa 0.0 l/m 2.3 km/h (1 Bft) W-NW 0.00 h 81 W/m 9.1 C 11.7 C 4.7 km/h (1 Bft)
01.06.2010 09:00 12.7 C 82 % 1017.0 hPa 0.0 l/m 2.7 km/h (1 Bft) W 0.00 h 206 W/m 9.7 C 12.7 C 5.4 km/h (1 Bft)
01.06.2010 10:00 14.0 C 78 % 1016.1 hPa 0.0 l/m 1.6 km/h (1 Bft) W-NW 0.02 h 278 W/m 10.3 C 14.0 C 3.2 km/h (1 Bft)
01.06.2010 11:00 16.0 C 72 % 1015.1 hPa 0.0 l/m 2.4 km/h (1 Bft) SO 0.88 h 698 W/m 11.0 C 16.0 C 4.9 km/h (1 Bft)
01.06.2010 12:00 15.9 C 69 % 1014.8 hPa 0.0 l/m 2.1 km/h (1 Bft) W-NW 0.07 h 296 W/m 10.2 C 15.9 C 3.9 km/h (1 Bft)
01.06.2010 13:00 16.0 C 69 % 1014.3 hPa 0.0 l/m 0.6 km/h (0 Bft) W-NW 0.00 h 240 W/m 10.3 C 16.0 C 1.7 km/h (1 Bft)
01.06.2010 14:00 16.4 C 67 % 1014.1 hPa 0.0 l/m 1.6 km/h (1 Bft) W-SW 0.00 h 260 W/m 10.3 C 16.4 C 3.4 km/h (1 Bft)
01.06.2010 15:00 16.2 C 65 % 1013.8 hPa 0.0 l/m 1.3 km/h (1 Bft) W 0.00 h 179 W/m 9.6 C 16.2 C 2.5 km/h (1 Bft)
01.06.2010 16:00 17.5 C 62 % 1013.5 hPa 0.0 l/m 1.3 km/h (1 Bft) W 0.45 h 381 W/m 10.0 C 17.5 C 3.0 km/h (1 Bft)
01.06.2010 17:00 16.5 C 64 % 1013.3 hPa 0.0 l/m 2.3 km/h (1 Bft) O-SO 0.00 h 106 W/m 9.6 C 16.5 C 4.0 km/h (1 Bft)
01.06.2010 18:00 16.0 C 65 % 1013.3 hPa 0.0 l/m 5.7 km/h (1 Bft) W 0.00 h 52 W/m 9.3 C 16.0 C 8.9 km/h (2 Bft)
01.06.2010 19:00 15.6 C 64 % 1013.2 hPa 0.0 l/m 4.1 km/h (1 Bft) W 0.00 h 46 W/m 8.9 C 15.6 C 7.1 km/h (2 Bft)
01.06.2010 20:00 15.1 C 67 % 1013.1 hPa 0.0 l/m 1.9 km/h (1 Bft) W 0.00 h 26 W/m 8.9 C 15.1 C 4.1 km/h (1 Bft)
01.06.2010 21:00 14.6 C 70 % 1013.0 hPa 0.0 l/m 0.5 km/h (0 Bft) W-NW 0.00 h 6 W/m 9.2 C 14.6 C 1.6 km/h (1 Bft)
01.06.2010 22:00 14.3 C 73 % 1013.2 hPa 0.0 l/m 0.5 km/h (0 Bft) NW 0.00 h 0 W/m 9.5 C 14.3 C 1.7 km/h (1 Bft)
01.06.2010 23:00 13.6 C 81 % 1013.3 hPa 0.4 l/m 1.6 km/h (1 Bft) W-NW 0.00 h 0 W/m 10.5 C 13.6 C 3.7 km/h (1 Bft)
02.06.2010 00:00 12.8 C 89 % 1013.3 hPa 0.2 l/m 0.4 km/h (0 Bft) O 0.00 h 0 W/m 11.0 C 12.8 C 1.3 km/h (1 Bft)
02.06.2010 01:00 12.4 C 92 % 1013.3 hPa 0.4 l/m 0.1 km/h (0 Bft) O 0.00 h 0 W/m 11.1 C 12.4 C 0.5 km/h (0 Bft)
02.06.2010 02:00 12.2 C 93 % 1013.3 hPa 0.2 l/m 0.0 km/h (0 Bft) N 0.00 h 0 W/m 11.0 C 12.2 C 0.0 km/h (0 Bft)
02.06.2010 03:00 11.6 C 94 % 1013.2 hPa 0.2 l/m 0.8 km/h (0 Bft) N 0.00 h 0 W/m 10.7 C 11.6 C 2.0 km/h (1 Bft)
02.06.2010 04:00 11.4 C 95 % 1013.1 hPa 0.0 l/m 0.3 km/h (0 Bft) N 0.00 h 0 W/m 10.6 C 11.4 C 1.3 km/h (1 Bft)
02.06.2010 05:00 11.2 C 94 % 1013.3 hPa 0.0 l/m 0.2 km/h (0 Bft) W-SW 0.00 h 6 W/m 10.2 C 11.2 C 0.9 km/h (0 Bft)
02.06.2010 06:00 11.3 C 95 % 1013.7 hPa 0.0 l/m 0.0 km/h (0 Bft) N 0.00 h 30 W/m 10.4 C 11.3 C 0.3 km/h (0 Bft)
02.06.2010 07:00 11.7 C 94 % 1013.7 hPa 0.0 l/m 0.4 km/h (0 Bft) W-SW 0.00 h 84 W/m 10.8 C 11.7 C 1.2 km/h (1 Bft)
02.06.2010 08:00 12.5 C 93 % 1013.9 hPa 0.0 l/m 0.9 km/h (0 Bft) NW 0.12 h 208 W/m 11.4 C 12.5 C 2.4 km/h (1 Bft)
02.06.2010 09:00 13.3 C 90 % 1014.1 hPa 0.0 l/m 0.6 km/h (0 Bft) NW 0.22 h 264 W/m 11.8 C 13.3 C 1.7 km/h (1 Bft)
02.06.2010 10:00 13.7 C 87 % 1014.3 hPa 0.0 l/m 1.9 km/h (1 Bft) W-NW 0.03 h 177 W/m 11.5 C 13.7 C 3.9 km/h (1 Bft)
02.06.2010 11:00 13.2 C 88 % 1014.7 hPa 0.0 l/m 0.4 km/h (0 Bft) W-NW 0.00 h 71 W/m 11.2 C 13.2 C 1.3 km/h (1 Bft)
02.06.2010 12:00 13.8 C 85 % 1014.8 hPa 0.0 l/m 0.2 km/h (0 Bft) W-NW 0.00 h 104 W/m 11.4 C 13.8 C 0.9 km/h (0 Bft)
02.06.2010 13:00 14.9 C 82 % 1014.7 hPa 0.0 l/m 2.0 km/h (1 Bft) SO 0.05 h 237 W/m 11.9 C 14.9 C 4.0 km/h (1 Bft)
02.06.2010 14:00 15.1 C 81 % 1014.9 hPa 0.0 l/m 2.3 km/h (1 Bft) O-SO 0.00 h 134 W/m 11.8 C 15.1 C 4.1 km/h (1 Bft)
02.06.2010 15:00 15.3 C 77 % 1015.4 hPa 0.0 l/m 2.7 km/h (1 Bft) O-SO 0.10 h 208 W/m 11.3 C 15.3 C 4.7 km/h (1 Bft)
02.06.2010 16:00 15.5 C 75 % 1015.4 hPa 0.0 l/m 0.6 km/h (0 Bft) O-SO 0.00 h 209 W/m 11.2 C 15.5 C 1.6 km/h (1 Bft)
02.06.2010 17:00 15.3 C 79 % 1015.7 hPa 0.0 l/m 0.9 km/h (0 Bft) W 0.00 h 115 W/m 11.7 C 15.3 C 2.8 km/h (1 Bft)
02.06.2010 18:00 14.8 C 82 % 1015.8 hPa 0.0 l/m 0.9 km/h (0 Bft) W 0.00 h 66 W/m 11.7 C 14.8 C 3.1 km/h (1 Bft)
02.06.2010 19:00 14.6 C 81 % 1015.9 hPa 0.0 l/m 1.4 km/h (1 Bft) S-SO 0.00 h 49 W/m 11.4 C 14.6 C 3.9 km/h (1 Bft)
02.06.2010 20:00 14.2 C 84 % 1015.8 hPa 0.0 l/m 1.7 km/h (1 Bft) S-SO 0.00 h 12 W/m 11.5 C 14.2 C 4.3 km/h (1 Bft)
02.06.2010 21:00 13.9 C 86 % 1015.9 hPa 0.0 l/m 1.2 km/h (1 Bft) S-SO 0.00 h 5 W/m 11.6 C 13.9 C 3.1 km/h (1 Bft)
02.06.2010 22:00 13.5 C 87 % 1016.2 hPa 0.0 l/m 0.3 km/h (0 Bft) S 0.00 h 0 W/m 11.4 C 13.5 C 1.3 km/h (1 Bft)
02.06.2010 23:00 13.3 C 88 % 1016.2 hPa 0.0 l/m 1.1 km/h (0 Bft) S-SO 0.00 h 0 W/m 11.2 C 13.3 C 2.8 km/h (1 Bft)
03.06.2010 00:00 13.0 C 90 % 1016.0 hPa 0.0 l/m 1.0 km/h (0 Bft) S-SO 0.00 h 0 W/m 11.4 C 13.0 C 2.2 km/h (1 Bft)
03.06.2010 01:00 12.8 C 91 % 1015.7 hPa 0.0 l/m 0.5 km/h (0 Bft) SO 0.00 h 0 W/m 11.3 C 12.8 C 1.4 km/h (1 Bft)
03.06.2010 02:00 12.6 C 91 % 1015.6 hPa 0.0 l/m 0.4 km/h (0 Bft) SO 0.00 h 0 W/m 11.2 C 12.6 C 1.4 km/h (1 Bft)
03.06.2010 03:00 12.5 C 92 % 1015.3 hPa 0.0 l/m 0.1 km/h (0 Bft) SO 0.00 h 0 W/m 11.2 C 12.5 C 0.5 km/h (0 Bft)
03.06.2010 04:00 12.4 C 92 % 1015.1 hPa 0.0 l/m 0.3 km/h (0 Bft) SO 0.00 h 0 W/m 11.1 C 12.4 C 1.1 km/h (1 Bft)
03.06.2010 05:00 12.3 C 93 % 1015.0 hPa 0.0 l/m 0.1 km/h (0 Bft) SO 0.00 h 0 W/m 11.2 C 12.3 C 0.5 km/h (0 Bft)
03.06.2010 06:00 12.3 C 94 % 1015.3 hPa 0.2 l/m 0.1 km/h (0 Bft) SO 0.00 h 5 W/m 11.3 C 12.3 C 0.4 km/h (0 Bft)
03.06.2010 07:00 12.3 C 95 % 1015.6 hPa 0.2 l/m 1.1 km/h (1 Bft) O 0.00 h 19 W/m 11.6 C 12.3 C 2.0 km/h (1 Bft)
03.06.2010 08:00 12.7 C 96 % 1015.8 hPa 0.2 l/m 0.1 km/h (0 Bft) O 0.00 h 77 W/m 12.0 C 12.7 C 0.6 km/h (0 Bft)
03.06.2010 09:00 13.2 C 95 % 1015.8 hPa 0.0 l/m 0.1 km/h (0 Bft) O 0.00 h 122 W/m 12.3 C 13.2 C 0.5 km/h (0 Bft)
03.06.2010 10:00 13.4 C 92 % 1016.7 hPa 0.2 l/m 1.4 km/h (1 Bft) N-NO 0.00 h 94 W/m 12.1 C 13.4 C 3.0 km/h (1 Bft)
03.06.2010 11:00 13.0 C 91 % 1017.2 hPa 0.8 l/m 2.9 km/h (1 Bft) NO 0.00 h 141 W/m 11.5 C 13.0 C 6.2 km/h (2 Bft)
03.06.2010 12:00 13.4 C 91 % 1017.2 hPa 0.6 l/m 0.9 km/h (0 Bft) O-NO 0.00 h 266 W/m 11.9 C 13.4 C 2.6 km/h (1 Bft)
03.06.2010 13:00 14.7 C 89 % 1016.8 hPa 0.2 l/m 2.0 km/h (1 Bft) O-SO 0.18 h 408 W/m 12.9 C 14.7 C 4.5 km/h (1 Bft)
03.06.2010 14:00 15.1 C 86 % 1016.7 hPa 0.0 l/m 1.2 km/h (1 Bft) SO 0.00 h 291 W/m 12.8 C 15.1 C 3.1 km/h (1 Bft)
03.06.2010 15:00 15.3 C 84 % 1016.9 hPa 0.0 l/m 2.6 km/h (1 Bft) O-SO 0.00 h 223 W/m 12.6 C 15.3 C 5.7 km/h (1 Bft)
03.06.2010 16:00 15.4 C 81 % 1017.0 hPa 0.0 l/m 3.1 km/h (1 Bft) O-SO 0.00 h 244 W/m 12.3 C 15.4 C 6.3 km/h (2 Bft)
03.06.2010 17:00 15.3 C 80 % 1017.3 hPa 0.0 l/m 4.2 km/h (1 Bft) O 0.00 h 205 W/m 11.9 C 15.3 C 8.9 km/h (2 Bft)
03.06.2010 18:00 15.0 C 82 % 1017.4 hPa 0.0 l/m 2.6 km/h (1 Bft) O-SO 0.00 h 120 W/m 11.9 C 15.0 C 5.1 km/h (1 Bft)
03.06.2010 19:00 14.5 C 85 % 1017.4 hPa 0.0 l/m 0.9 km/h (0 Bft) O-SO 0.00 h 29 W/m 12.0 C 14.5 C 2.6 km/h (1 Bft)
03.06.2010 20:00 14.0 C 87 % 1017.4 hPa 0.0 l/m 2.2 km/h (1 Bft) O-SO 0.00 h 12 W/m 11.9 C 14.0 C 4.0 km/h (1 Bft)
03.06.2010 21:00 13.9 C 87 % 1017.5 hPa 0.0 l/m 0.0 km/h (0 Bft) N 0.00 h 5 W/m 11.8 C 13.9 C 0.2 km/h (0 Bft)
03.06.2010 22:00 13.8 C 88 % 1017.8 hPa 0.0 l/m 0.2 km/h (0 Bft) NO 0.00 h 0 W/m 11.9 C 13.8 C 1.1 km/h (1 Bft)
03.06.2010 23:00 13.6 C 89 % 1017.9 hPa 0.0 l/m 0.1 km/h (0 Bft) NO 0.00 h 0 W/m 11.9 C 13.6 C 0.3 km/h (0 Bft)
04.06.2010 00:00 13.4 C 91 % 1017.8 hPa 0.0 l/m 0.2 km/h (0 Bft) NO 0.00 h 0 W/m 12.0 C 13.4 C 0.8 km/h (0 Bft)
04.06.2010 01:00 13.3 C 91 % 1017.4 hPa 0.0 l/m 0.6 km/h (0 Bft) N-NO 0.00 h 0 W/m 11.8 C 13.3 C 1.6 km/h (1 Bft)
04.06.2010 02:00 12.8 C 91 % 1016.9 hPa 0.0 l/m 1.0 km/h (0 Bft) N-NO 0.00 h 0 W/m 11.4 C 12.8 C 3.0 km/h (1 Bft)
04.06.2010 03:00 12.5 C 92 % 1017.0 hPa 0.0 l/m 1.2 km/h (1 Bft) SO 0.00 h 0 W/m 11.3 C 12.5 C 2.8 km/h (1 Bft)
04.06.2010 04:00 13.3 C 90 % 1016.8 hPa 0.0 l/m 2.8 km/h (1 Bft) O-SO 0.00 h 0 W/m 11.7 C 13.3 C 5.4 km/h (1 Bft)
04.06.2010 05:00 13.3 C 90 % 1016.9 hPa 0.0 l/m 2.5 km/h (1 Bft) O-SO 0.00 h 8 W/m 11.7 C 13.3 C 4.7 km/h (1 Bft)
04.06.2010 06:00 13.4 C 90 % 1017.3 hPa 0.0 l/m 1.0 km/h (0 Bft) O-SO 0.00 h 38 W/m 11.8 C 13.4 C 2.8 km/h (1 Bft)
04.06.2010 07:00 14.6 C 86 % 1017.7 hPa 0.0 l/m 1.6 km/h (1 Bft) O-SO 0.68 h 201 W/m 12.2 C 14.6 C 3.6 km/h (1 Bft)
04.06.2010 08:00 15.8 C 82 % 1017.8 hPa 0.0 l/m 3.1 km/h (1 Bft) SO 0.85 h 366 W/m 12.7 C 15.8 C 6.6 km/h (2 Bft)
04.06.2010 09:00 17.0 C 78 % 1017.9 hPa 0.0 l/m 6.6 km/h (2 Bft) O-SO 1.00 h 522 W/m 13.2 C 17.0 C 10.8 km/h (2 Bft)
04.06.2010 10:00 18.7 C 74 % 1017.7 hPa 0.0 l/m 5.3 km/h (1 Bft) O-SO 1.00 h 689 W/m 13.9 C 18.7 C 9.2 km/h (2 Bft)
04.06.2010 11:00 20.3 C 69 % 1017.5 hPa 0.0 l/m 5.2 km/h (1 Bft) O-SO 1.00 h 774 W/m 14.5 C 20.3 C 9.6 km/h (2 Bft)
04.06.2010 12:00 21.6 C 65 % 1017.3 hPa 0.0 l/m 7.6 km/h (2 Bft) O-SO 1.00 h 859 W/m 14.8 C 21.6 C 12.5 km/h (3 Bft)
04.06.2010 13:00 23.0 C 58 % 1017.0 hPa 0.0 l/m 6.3 km/h (2 Bft) O-SO 0.97 h 859 W/m 14.1 C 23.0 C 12.2 km/h (2 Bft)
04.06.2010 14:00 23.9 C 51 % 1016.8 hPa 0.0 l/m 5.8 km/h (2 Bft) O-SO 1.00 h 853 W/m 13.0 C 23.9 C 12.5 km/h (3 Bft)
04.06.2010 15:00 25.0 C 46 % 1016.6 hPa 0.0 l/m 6.1 km/h (2 Bft) N 1.00 h 784 W/m 12.5 C 25.0 C 12.6 km/h (3 Bft)
04.06.2010 16:00 25.0 C 44 % 1016.6 hPa 0.0 l/m 5.7 km/h (1 Bft) O 1.00 h 671 W/m 12.0 C 25.0 C 10.2 km/h (2 Bft)
04.06.2010 17:00 25.1 C 44 % 1016.6 hPa 0.0 l/m 5.7 km/h (1 Bft) O-SO 1.00 h 531 W/m 11.9 C 25.1 C 10.0 km/h (2 Bft)
04.06.2010 18:00 24.5 C 44 % 1016.6 hPa 0.0 l/m 8.4 km/h (2 Bft) O-SO 1.00 h 371 W/m 11.4 C 24.5 C 12.8 km/h (3 Bft)
04.06.2010 19:00 24.0 C 46 % 1016.6 hPa 0.0 l/m 4.3 km/h (1 Bft) O-SO 1.00 h 207 W/m 11.6 C 24.0 C 7.5 km/h (2 Bft)
04.06.2010 20:00 22.6 C 52 % 1017.0 hPa 0.0 l/m 2.2 km/h (1 Bft) O 0.70 h 66 W/m 12.3 C 22.6 C 4.1 km/h (1 Bft)
04.06.2010 21:00 19.8 C 63 % 1017.5 hPa 0.0 l/m 1.4 km/h (1 Bft) O 0.02 h 8 W/m 12.5 C 19.8 C 2.5 km/h (1 Bft)
04.06.2010 22:00 17.1 C 74 % 1018.3 hPa 0.0 l/m 1.6 km/h (1 Bft) O 0.00 h 0 W/m 12.4 C 17.1 C 2.8 km/h (1 Bft)
04.06.2010 23:00 15.7 C 80 % 1018.8 hPa 0.0 l/m 0.6 km/h (0 Bft) O 0.00 h 0 W/m 12.2 C 15.7 C 1.4 km/h (1 Bft)
05.06.2010 00:00 14.6 C 83 % 1019.2 hPa 0.0 l/m 1.8 km/h (1 Bft) O 0.00 h 0 W/m 11.8 C 14.6 C 3.0 km/h (1 Bft)
05.06.2010 01:00 13.6 C 86 % 1019.3 hPa 0.0 l/m 2.7 km/h (1 Bft) O 0.00 h 0 W/m 11.4 C 13.6 C 3.9 km/h (1 Bft)
05.06.2010 02:00 12.7 C 89 % 1019.1 hPa 0.0 l/m 0.2 km/h (0 Bft) O-SO 0.00 h 0 W/m 11.0 C 12.7 C 0.7 km/h (0 Bft)
05.06.2010 03:00 12.0 C 91 % 1019.3 hPa 0.0 l/m 1.2 km/h (1 Bft) O-SO 0.00 h 0 W/m 10.5 C 12.0 C 2.1 km/h (1 Bft)
05.06.2010 04:00 11.5 C 91 % 1019.4 hPa 0.0 l/m 1.1 km/h (0 Bft) O-SO 0.00 h 0 W/m 10.2 C 11.5 C 2.3 km/h (1 Bft)
05.06.2010 05:00 10.7 C 92 % 1019.3 hPa 0.0 l/m 0.7 km/h (0 Bft) O-SO 0.00 h 8 W/m 9.5 C 10.7 C 1.5 km/h (1 Bft)
05.06.2010 06:00 10.8 C 93 % 1019.5 hPa 0.0 l/m 0.1 km/h (0 Bft) O-SO 0.08 h 32 W/m 9.7 C 10.8 C 0.4 km/h (0 Bft)
05.06.2010 07:00 12.9 C 90 % 1019.4 hPa 0.0 l/m 0.2 km/h (0 Bft) O-SO 1.00 h 215 W/m 11.3 C 12.9 C 0.9 km/h (0 Bft)
05.06.2010 08:00 15.4 C 84 % 1019.4 hPa 0.0 l/m 0.1 km/h (0 Bft) O-SO 1.00 h 380 W/m 12.7 C 15.4 C 0.7 km/h (0 Bft)
05.06.2010 09:00 17.5 C 77 % 1019.1 hPa 0.0 l/m 1.1 km/h (1 Bft) N 1.00 h 543 W/m 13.5 C 17.5 C 2.6 km/h (1 Bft)
05.06.2010 10:00 20.9 C 66 % 1018.7 hPa 0.0 l/m 1.5 km/h (1 Bft) NW 1.00 h 690 W/m 14.2 C 20.9 C 3.2 km/h (1 Bft)
05.06.2010 11:00 23.4 C 53 % 1018.1 hPa 0.0 l/m 2.9 km/h (1 Bft) O-SO 1.00 h 808 W/m 13.4 C 23.4 C 5.2 km/h (1 Bft)
05.06.2010 12:00 25.0 C 44 % 1017.6 hPa 0.0 l/m 3.1 km/h (1 Bft) SO 1.00 h 881 W/m 11.7 C 25.0 C 6.0 km/h (2 Bft)
05.06.2010 13:00 26.1 C 39 % 1017.2 hPa 0.0 l/m 2.5 km/h (1 Bft) SO 1.00 h 907 W/m 11.0 C 26.1 C 5.1 km/h (1 Bft)
05.06.2010 14:00 27.1 C 38 % 1016.5 hPa 0.0 l/m 2.6 km/h (1 Bft) SO 1.00 h 881 W/m 11.3 C 27.1 C 5.0 km/h (1 Bft)
05.06.2010 15:00 27.9 C 36 % 1015.9 hPa 0.0 l/m 2.1 km/h (1 Bft) SO 1.00 h 801 W/m 11.4 C 27.9 C 4.6 km/h (1 Bft)
05.06.2010 16:00 28.4 C 34 % 1015.5 hPa 0.0 l/m 1.4 km/h (1 Bft) SO 1.00 h 682 W/m 11.1 C 28.4 C 3.2 km/h (1 Bft)
05.06.2010 17:00 28.6 C 31 % 1015.2 hPa 0.0 l/m 1.1 km/h (0 Bft) SO 1.00 h 536 W/m 9.9 C 28.6 C 2.7 km/h (1 Bft)
05.06.2010 18:00 28.8 C 33 % 1014.8 hPa 0.0 l/m 1.5 km/h (1 Bft) W 1.00 h 374 W/m 10.7 C 28.8 C 3.2 km/h (1 Bft)
05.06.2010 19:00 27.7 C 36 % 1014.3 hPa 0.0 l/m 2.8 km/h (1 Bft) O-SO 1.00 h 207 W/m 11.3 C 27.7 C 4.4 km/h (1 Bft)
05.06.2010 20:00 25.4 C 43 % 1014.4 hPa 0.0 l/m 1.8 km/h (1 Bft) O-SO 0.55 h 63 W/m 11.9 C 25.4 C 3.0 km/h (1 Bft)
05.06.2010 21:00 21.6 C 59 % 1014.8 hPa 0.0 l/m 2.0 km/h (1 Bft) O-SO 0.00 h 6 W/m 13.3 C 21.6 C 3.4 km/h (1 Bft)
05.06.2010 22:00 19.3 C 68 % 1015.1 hPa 0.0 l/m 3.0 km/h (1 Bft) O-SO 0.00 h 0 W/m 13.3 C 19.3 C 4.0 km/h (1 Bft)
05.06.2010 23:00 17.7 C 74 % 1015.3 hPa 0.0 l/m 1.4 km/h (1 Bft) O-SO 0.00 h 0 W/m 13.0 C 17.7 C 2.1 km/h (1 Bft)
06.06.2010 00:00 16.7 C 77 % 1015.2 hPa 0.0 l/m 0.6 km/h (0 Bft) O-SO 0.00 h 0 W/m 12.6 C 16.7 C 1.5 km/h (1 Bft)
06.06.2010 01:00 15.8 C 80 % 1015.2 hPa 0.0 l/m 1.2 km/h (1 Bft) O-SO 0.00 h 0 W/m 12.3 C 15.8 C 2.0 km/h (1 Bft)
06.06.2010 02:00 15.0 C 83 % 1014.9 hPa 0.0 l/m 1.1 km/h (1 Bft) O-SO 0.00 h 0 W/m 12.2 C 15.0 C 2.5 km/h (1 Bft)
06.06.2010 03:00 14.3 C 85 % 1014.7 hPa 0.0 l/m 0.4 km/h (0 Bft) O-SO 0.00 h 0 W/m 11.8 C 14.3 C 1.1 km/h (1 Bft)
06.06.2010 04:00 13.6 C 87 % 1014.5 hPa 0.0 l/m 1.4 km/h (1 Bft) O-SO 0.00 h 0 W/m 11.5 C 13.6 C 2.4 km/h (1 Bft)
06.06.2010 05:00 13.1 C 88 % 1014.7 hPa 0.0 l/m 0.6 km/h (0 Bft) O-SO 0.00 h 9 W/m 11.3 C 13.1 C 1.2 km/h (1 Bft)
06.06.2010 06:00 13.1 C 90 % 1014.7 hPa 0.0 l/m 0.4 km/h (0 Bft) O-SO 0.10 h 40 W/m 11.4 C 13.1 C 0.9 km/h (0 Bft)
06.06.2010 07:00 15.3 C 85 % 1014.4 hPa 0.0 l/m 0.0 km/h (0 Bft) N 1.00 h 198 W/m 12.7 C 15.3 C 0.1 km/h (0 Bft)
06.06.2010 08:00 17.7 C 76 % 1014.2 hPa 0.0 l/m 0.6 km/h (0 Bft) O-SO 1.00 h 365 W/m 13.4 C 17.7 C 1.9 km/h (1 Bft)
06.06.2010 09:00 20.7 C 70 % 1013.8 hPa 0.0 l/m 1.0 km/h (0 Bft) N-NO 1.00 h 529 W/m 14.9 C 20.7 C 2.7 km/h (1 Bft)
06.06.2010 10:00 23.7 C 66 % 1013.2 hPa 0.0 l/m 1.5 km/h (1 Bft) NW 1.00 h 670 W/m 17.0 C 23.7 C 3.4 km/h (1 Bft)
06.06.2010 11:00 26.2 C 60 % 1012.7 hPa 0.0 l/m 1.7 km/h (1 Bft) W 1.00 h 756 W/m 17.7 C 26.2 C 3.7 km/h (1 Bft)
06.06.2010 12:00 27.5 C 53 % 1012.2 hPa 0.0 l/m 2.7 km/h (1 Bft) W 0.82 h 796 W/m 17.1 C 27.5 C 5.0 km/h (1 Bft)
06.06.2010 13:00 28.6 C 48 % 1011.5 hPa 0.0 l/m 4.3 km/h (1 Bft) W 0.85 h 865 W/m 16.4 C 28.6 C 7.1 km/h (2 Bft)
06.06.2010 14:00 28.2 C 46 % 1011.0 hPa 0.0 l/m 6.1 km/h (2 Bft) W-NW 0.72 h 654 W/m 15.5 C 28.2 C 9.5 km/h (2 Bft)
06.06.2010 15:00 28.3 C 50 % 1010.5 hPa 0.0 l/m 7.6 km/h (2 Bft) W-NW 0.80 h 654 W/m 16.7 C 28.3 C 12.0 km/h (2 Bft)
06.06.2010 16:00 27.5 C 55 % 1010.3 hPa 0.0 l/m 5.3 km/h (1 Bft) W 0.30 h 317 W/m 17.5 C 27.5 C 8.1 km/h (2 Bft)
06.06.2010 17:00 25.3 C 62 % 1010.2 hPa 0.0 l/m 5.7 km/h (1 Bft) W-SW 0.00 h 118 W/m 17.5 C 25.3 C 9.0 km/h (2 Bft)
06.06.2010 18:00 24.1 C 58 % 1010.8 hPa 0.0 l/m 14.0 km/h (3 Bft) W 0.12 h 104 W/m 15.4 C 24.1 C 21.8 km/h (4 Bft)
06.06.2010 19:00 19.9 C 83 % 1012.1 hPa 1.0 l/m 11.5 km/h (2 Bft) W 0.00 h 8 W/m 16.8 C 19.9 C 18.1 km/h (3 Bft)
06.06.2010 20:00 18.2 C 92 % 1012.7 hPa 1.8 l/m 7.6 km/h (2 Bft) W-NW 0.00 h 16 W/m 16.9 C 18.2 C 13.0 km/h (3 Bft)
06.06.2010 21:00 18.1 C 89 % 1013.6 hPa 0.4 l/m 1.7 km/h (1 Bft) S-SW 0.00 h 0 W/m 16.3 C 18.1 C 4.0 km/h (1 Bft)
06.06.2010 22:00 17.5 C 91 % 1014.1 hPa 0.0 l/m 2.5 km/h (1 Bft) W 0.00 h 0 W/m 15.9 C 17.5 C 5.6 km/h (1 Bft)
06.06.2010 23:00 17.4 C 92 % 1014.0 hPa 0.2 l/m 1.3 km/h (1 Bft) S-SO 0.00 h 0 W/m 16.1 C 17.4 C 3.0 km/h (1 Bft)
Min-Datum _ 31.05.10 05.06.10 06.06.10 - 31.05.10 - - - 31.05.10 31.05.10 31.05.10
_ Min-Zeit 04:20 17:51 17:21 - 04:07 - - - 19:14 05:13 04:12
Minimum _ 8.3 C 27 % 1010.0 hPa - 0.0 km/h (0 Bft) - - - 5.2 C 7.3 C 0.0 km/h (0 Bft)
Max-Datum _ 06.06.10 03.06.10 05.06.10 06.06.10 31.05.10 - 04.06.10 06.06.10 06.06.10 06.06.10 31.05.10
_ Max-Zeit 13:41 08:06 06:14 20:04 01:31 - 07:11 13:55 11:26 13:40 01:31
Maximum _ 29.6 C 96 % 1019.6 hPa 1.8 l/m 27.6 km/h
W (4 Bft)
- 0.03 h 1206 W/m 20.0 C 29.6 C 46.9 km/h
W (6 Bft)
Durchschnitt _ 16.1 C 76 % 1015.4 hPa #8.2 l/m 3.3 km/h (1 Bft) W #42:17 h 293 W/m 11.3 C 16.1 C 5.9 km/h (2 Bft)
© Kaiko 2010